Time;durP1;ratioP1;P1;durP2;ratioP2;P2;SDS_P1;SDS_P2;PMS_P1;PMS_P2;Temp;Humidity;BMP_temperature;BMP_pressure;BME280_temperature;BME280_humidity;BME280_pressure;Samples;Min_cycle;Max_cycle;Signal;HPM_P1;HPM_P2
2022/09/20 00:01:34;;;;;;;3.42;1.50;;;18.20;54.90;;;;;;4086858;28;20420;-42
2022/09/20 00:03:59;;;;;;;3.95;1.60;;;18.30;55.00;;;;;;4088999;28;20039;-42
2022/09/20 00:06:30;;;;;;;2.25;0.90;;;18.30;55.10;;;;;;4093089;28;20031;-42
2022/09/20 00:08:54;;;;;;;3.05;1.38;;;18.30;55.20;;;;;;4090323;28;20137;-40
2022/09/20 00:11:23;;;;;;;4.10;1.33;;;18.40;55.80;;;;;;4093569;28;20040;-41
2022/09/20 00:13:47;;;;;;;2.45;1.33;;;18.50;56.00;;;;;;4089269;28;20285;-41
2022/09/20 00:16:13;;;;;;;5.07;1.60;;;18.50;55.80;;;;;;4092906;28;20118;-45
2022/09/20 00:18:36;;;;;;;2.50;1.20;;;18.60;55.70;;;;;;4092618;28;20066;-46
2022/09/20 00:20:58;;;;;;;2.55;1.30;;;18.70;55.30;;;;;;4087855;28;20054;-42
2022/09/20 00:23:21;;;;;;;2.78;1.30;;;18.70;55.10;;;;;;4090490;28;20039;-42
2022/09/20 00:25:45;;;;;;;5.13;1.70;;;18.80;55.10;;;;;;4091175;28;20042;-42
2022/09/20 00:28:09;;;;;;;3.20;1.60;;;18.80;55.30;;;;;;4090587;28;20419;-40
2022/09/20 00:30:36;;;;;;;3.55;1.40;;;18.80;55.40;;;;;;4091456;28;20130;-40
2022/09/20 00:32:58;;;;;;;4.40;1.30;;;18.80;55.10;;;;;;4085547;28;20132;-40
2022/09/20 00:35:21;;;;;;;2.50;0.90;;;18.90;55.20;;;;;;4094461;28;20042;-40
2022/09/20 00:37:44;;;;;;;3.90;1.05;;;19.00;55.30;;;;;;4089772;28;20038;-38
2022/09/20 00:40:15;;;;;;;2.80;1.38;;;19.00;55.20;;;;;;4094112;28;20043;-40
2022/09/20 00:42:39;;;;;;;2.72;1.00;;;19.00;55.00;;;;;;4089533;28;20051;-40
2022/09/20 00:45:26;;;;;;;3.10;1.03;;;19.00;55.20;;;;;;4090532;28;20475;-39
2022/09/20 00:48:09;;;;;;;2.47;1.20;;;19.10;55.20;;;;;;4084548;28;20051;-39
2022/09/20 00:50:34;;;;;;;3.92;1.17;;;19.20;55.10;;;;;;4096754;28;20459;-40
2022/09/20 00:53:06;;;;;;;3.80;1.00;;;19.20;54.80;;;;;;4094352;28;20047;-42
2022/09/20 00:55:29;;;;;;;1.33;0.70;;;19.20;54.60;;;;;;4093265;28;20407;-40
2022/09/20 00:57:53;;;;;;;2.27;1.20;;;19.30;54.50;;;;;;4094338;28;20049;-41
2022/09/20 01:00:16;;;;;;;3.63;0.85;;;19.20;54.40;;;;;;4093930;28;20516;-40
2022/09/20 01:02:48;;;;;;;2.30;0.70;;;19.30;54.30;;;;;;4093300;28;20075;-40
2022/09/20 01:05:13;;;;;;;2.38;1.10;;;19.40;54.30;;;;;;4098401;28;20047;-42
2022/09/20 01:07:36;;;;;;;1.27;0.85;;;19.40;54.10;;;;;;4093355;28;20032;-39
2022/09/20 01:09:59;;;;;;;1.50;0.90;;;19.40;54.00;;;;;;4094188;28;20043;-39
2022/09/20 01:12:26;;;;;;;1.05;0.70;;;19.40;54.00;;;;;;4095502;28;20058;-40
2022/09/20 01:14:50;;;;;;;2.22;1.10;;;19.40;54.00;;;;;;4092413;28;20039;-42
2022/09/20 01:17:14;;;;;;;1.33;0.60;;;19.50;53.90;;;;;;4087778;28;20039;-41
2022/09/20 01:20:06;;;;;;;2.00;0.70;;;19.50;53.70;;;;;;4092921;28;20027;-39
2022/09/20 01:22:46;;;;;;;1.05;0.55;;;19.60;53.60;;;;;;4095293;28;20101;-45
2022/09/20 01:25:11;;;;;;;2.45;0.70;;;19.60;53.60;;;;;;4085284;28;20051;-43
2022/09/20 01:27:49;;;;;;;1.05;0.60;;;19.60;53.50;;;;;;4091629;28;20050;-41
2022/09/20 01:30:21;;;;;;;1.25;0.77;;;19.70;53.40;;;;;;4089698;28;20051;-40
2022/09/20 01:32:57;;;;;;;0.73;0.50;;;19.80;53.30;;;;;;4089759;28;20118;-42
2022/09/20 01:35:23;;;;;;;0.98;0.70;;;19.80;53.30;;;;;;4089841;28;20130;-41
2022/09/20 01:37:50;;;;;;;2.13;0.60;;;19.90;53.30;;;;;;4088364;28;20142;-41
2022/09/20 01:40:19;;;;;;;1.00;0.60;;;19.90;53.30;;;;;;4090322;28;20447;-39
2022/09/20 01:43:34;;;;;;;1.38;0.50;;;19.90;53.10;;;;;;4083578;28;20062;-40
2022/09/20 01:46:01;;;;;;;1.13;0.57;;;19.90;52.80;;;;;;4082564;28;20061;-39
2022/09/20 01:48:36;;;;;;;2.30;0.90;;;19.90;52.40;;;;;;4090075;28;20091;-41
2022/09/20 01:51:16;;;;;;;1.33;0.50;;;19.90;52.40;;;;;;4089906;28;20130;-45
2022/09/20 01:54:01;;;;;;;1.67;0.73;;;19.90;52.30;;;;;;4088986;28;20045;-39
2022/09/20 01:57:00;;;;;;;2.75;1.15;;;19.90;52.10;;;;;;4087446;28;20110;-39
2022/09/20 01:59:46;;;;;;;2.35;0.57;;;19.90;52.10;;;;;;4089928;28;20035;-38
2022/09/20 02:02:27;;;;;;;1.95;0.70;;;19.90;52.00;;;;;;4089627;28;20053;-38
2022/09/20 02:05:15;;;;;;;1.48;0.70;;;19.90;51.90;;;;;;4089936;28;20065;-39
2022/09/20 02:08:06;;;;;;;2.85;0.60;;;19.90;51.70;;;;;;4087793;28;20075;-38
2022/09/20 02:10:47;;;;;;;1.85;0.70;;;20.00;51.80;;;;;;4090984;28;20039;-38
2022/09/20 02:13:30;;;;;;;1.02;0.60;;;20.00;51.50;;;;;;4082075;28;20036;-38
2022/09/20 02:16:29;;;;;;;1.85;0.60;;;20.00;51.50;;;;;;4091475;28;20044;-36
2022/09/20 02:19:29;;;;;;;2.17;0.70;;;20.00;51.50;;;;;;4082180;28;20032;-38
2022/09/20 02:22:01;;;;;;;2.78;0.93;;;20.00;51.40;;;;;;4083452;28;20103;-38
2022/09/20 02:24:38;;;;;;;0.65;0.38;;;20.00;51.30;;;;;;4089208;28;20418;-39
2022/09/20 02:27:03;;;;;;;1.48;0.35;;;20.10;51.20;;;;;;4093166;28;20414;-39
2022/09/20 02:29:26;;;;;;;1.63;0.60;;;20.10;51.20;;;;;;4091011;28;20546;-38
2022/09/20 02:32:17;;;;;;;2.28;0.60;;;20.10;51.20;;;;;;4088168;28;20462;-40
2022/09/20 02:35:07;;;;;;;1.13;0.52;;;20.10;51.10;;;;;;4080938;28;20082;-37
2022/09/20 02:37:54;;;;;;;1.25;0.60;;;20.10;51.10;;;;;;4092508;28;20134;-41
2022/09/20 02:40:20;;;;;;;2.15;0.50;;;20.20;51.10;;;;;;4086152;28;20052;-38
2022/09/20 02:42:49;;;;;;;1.35;0.57;;;20.20;51.10;;;;;;4079598;28;20479;-37
2022/09/20 02:45:52;;;;;;;0.80;0.43;;;20.20;51.10;;;;;;4103412;28;20043;-43
2022/09/20 02:48:20;;;;;;;0.93;0.57;;;20.20;51.00;;;;;;4089102;28;20110;-36
2022/09/20 02:51:05;;;;;;;1.15;0.50;;;20.20;51.00;;;;;;4086436;28;20043;-40
2022/09/20 02:54:10;;;;;;;0.65;0.60;;;20.20;51.00;;;;;;4084413;28;20138;-39
2022/09/20 02:56:35;;;;;;;1.30;0.55;;;20.30;51.00;;;;;;4093567;28;20117;-39
2022/09/20 02:59:21;;;;;;;1.67;0.77;;;20.30;51.00;;;;;;4093114;28;20065;-40
2022/09/20 03:01:43;;;;;;;0.75;0.50;;;20.30;50.90;;;;;;4089294;28;20043;-38
2022/09/20 03:04:21;;;;;;;0.85;0.70;;;20.30;50.90;;;;;;4087816;28;20477;-37
2022/09/20 03:07:04;;;;;;;1.17;0.70;;;20.40;51.30;;;;;;4091071;28;20039;-38
2022/09/20 03:09:48;;;;;;;0.88;0.60;;;20.40;51.60;;;;;;4087682;28;20082;-39
2022/09/20 03:12:20;;;;;;;2.97;1.00;;;20.40;51.70;;;;;;4090906;28;20031;-39
2022/09/20 03:14:50;;;;;;;2.65;0.70;;;20.40;51.90;;;;;;4092309;28;20039;-39
2022/09/20 03:17:26;;;;;;;5.10;0.95;;;20.40;52.00;;;;;;4085558;28;20142;-40
2022/09/20 03:20:07;;;;;;;1.45;0.65;;;20.50;52.00;;;;;;4086388;28;20142;-40
2022/09/20 03:23:14;;;;;;;2.10;0.65;;;20.50;52.00;;;;;;4089280;28;20124;-39
2022/09/20 03:25:54;;;;;;;1.63;0.68;;;20.60;52.00;;;;;;4086441;28;20171;-39
2022/09/20 03:28:35;;;;;;;1.33;0.80;;;20.60;52.00;;;;;;4085522;28;20091;-38
2022/09/20 03:31:21;;;;;;;1.05;0.60;;;20.70;51.90;;;;;;4087409;28;20053;-37
2022/09/20 03:33:59;;;;;;;0.55;0.55;;;20.70;52.10;;;;;;4081795;28;20047;-37
2022/09/20 03:36:57;;;;;;;1.80;0.80;;;20.80;52.00;;;;;;4086281;28;20039;-37
2022/09/20 03:39:25;;;;;;;1.35;0.60;;;20.80;51.90;;;;;;4092499;28;20046;-38
2022/09/20 03:41:54;;;;;;;1.67;0.77;;;20.90;52.00;;;;;;4091043;28;20219;-38
2022/09/20 03:44:25;;;;;;;1.83;0.70;;;20.90;52.10;;;;;;4076840;28;20632;-37
2022/09/20 03:46:50;;;;;;;2.70;0.60;;;20.90;52.10;;;;;;4083729;28;20051;-37
2022/09/20 03:49:50;;;;;;;1.75;0.80;;;20.90;52.20;;;;;;4083493;28;20077;-37
2022/09/20 03:52:38;;;;;;;1.35;0.70;;;20.90;52.00;;;;;;4080000;28;20109;-38
2022/09/20 03:55:19;;;;;;;2.58;0.60;;;21.00;52.10;;;;;;4084077;28;20047;-38
2022/09/20 03:57:56;;;;;;;3.00;0.75;;;21.10;52.00;;;;;;4082139;28;20057;-37
2022/09/20 04:00:38;;;;;;;2.42;0.85;;;21.10;52.20;;;;;;4086489;28;20078;-37
2022/09/20 04:03:33;;;;;;;1.05;0.50;;;21.10;52.10;;;;;;4086983;28;20180;-37
2022/09/20 04:06:09;;;;;;;1.65;0.70;;;21.10;52.90;;;;;;4077871;28;20035;-38
2022/09/20 04:08:41;;;;;;;1.77;0.52;;;21.10;52.10;;;;;;4096389;28;20125;-38
2022/09/20 04:11:26;;;;;;;2.50;1.00;;;21.20;52.10;;;;;;4081458;28;20047;-37
2022/09/20 04:14:02;;;;;;;1.95;0.63;;;21.30;52.20;;;;;;4087553;28;20349;-37
2022/09/20 04:16:44;;;;;;;1.95;0.60;;;21.30;52.10;;;;;;4087115;28;20090;-37
2022/09/20 04:19:19;;;;;;;2.30;0.70;;;21.40;52.10;;;;;;4085228;28;20032;-42
2022/09/20 04:21:41;;;;;;;1.67;0.80;;;21.50;52.00;;;;;;4086643;28;20078;-38
2022/09/20 04:24:23;;;;;;;1.52;1.00;;;21.50;51.90;;;;;;4084429;28;20043;-39
2022/09/20 04:27:10;;;;;;;6.03;1.10;;;21.60;52.00;;;;;;4088412;28;20081;-38
2022/09/20 04:30:01;;;;;;;1.25;0.65;;;21.60;51.90;;;;;;4090131;28;20043;-37
2022/09/20 04:32:42;;;;;;;1.95;0.60;;;21.70;51.90;;;;;;4088678;28;20114;-42
2022/09/20 04:38:22;;;;;;;0.68;0.60;;;21.80;51.40;;;;;;4081189;28;20130;-37
2022/09/20 04:41:19;;;;;;;7.03;0.88;;;22.00;51.60;;;;;;4076865;28;20427;-38
2022/09/20 04:44:35;;;;;;;2.25;0.93;;;22.00;51.60;;;;;;4079366;28;20117;-38
2022/09/20 04:47:27;;;;;;;2.40;0.82;;;22.10;51.70;;;;;;4052212;29;20062;-36
2022/09/20 04:49:59;;;;;;;2.55;0.70;;;22.20;51.80;;;;;;4086076;28;20138;-41
2022/09/20 04:52:39;;;;;;;1.15;0.68;;;22.30;51.70;;;;;;4079592;28;20485;-37
2022/09/20 04:55:35;;;;;;;3.75;0.85;;;22.50;51.50;;;;;;4087032;28;20051;-43
2022/09/20 04:58:16;;;;;;;2.75;0.68;;;22.60;51.30;;;;;;4087162;28;20039;-38
2022/09/20 05:01:01;;;;;;;1.85;0.57;;;22.70;51.10;;;;;;4088734;28;20460;-37
2022/09/20 05:04:00;;;;;;;1.33;0.60;;;22.80;51.10;;;;;;4088280;28;20063;-37
2022/09/20 05:06:58;;;;;;;0.47;0.45;;;23.00;51.20;;;;;;4085076;28;20527;-41
2022/09/20 05:09:28;;;;;;;1.33;0.70;;;23.10;50.90;;;;;;4087608;28;20051;-41
2022/09/20 05:12:15;;;;;;;0.95;0.52;;;23.20;50.70;;;;;;4084689;28;20097;-37
2022/09/20 05:14:50;;;;;;;1.63;0.70;;;23.30;50.80;;;;;;4085831;28;20039;-38
2022/09/20 05:17:16;;;;;;;2.35;0.63;;;23.40;50.70;;;;;;4086657;28;20823;-37
2022/09/20 05:19:45;;;;;;;2.42;0.82;;;23.40;50.60;;;;;;4086674;28;20062;-39
2022/09/20 05:22:27;;;;;;;1.85;0.50;;;23.40;51.20;;;;;;4082663;28;20134;-38
2022/09/20 05:25:25;;;;;;;3.88;0.70;;;23.40;51.00;;;;;;4082964;28;20218;-38
2022/09/20 05:27:54;;;;;;;2.22;0.60;;;23.40;51.30;;;;;;4087353;28;20386;-38
2022/09/20 05:30:32;;;;;;;1.55;0.60;;;23.40;51.20;;;;;;4090217;28;20040;-38
2022/09/20 05:33:22;;;;;;;1.75;0.50;;;23.40;51.10;;;;;;4094699;28;20062;-38
2022/09/20 05:36:19;;;;;;;1.33;0.50;;;23.50;51.20;;;;;;4092065;28;20055;-38
2022/09/20 05:38:58;;;;;;;3.70;0.82;;;23.50;51.20;;;;;;4081985;28;20058;-38
2022/09/20 05:41:36;;;;;;;3.28;0.73;;;23.60;51.70;;;;;;4096004;28;20053;-38
2022/09/20 05:44:19;;;;;;;2.47;0.88;;;23.60;51.50;;;;;;4074470;28;20484;-39
2022/09/20 05:47:06;;;;;;;4.53;0.65;;;23.60;51.30;;;;;;4094406;28;20317;-41
2022/09/20 05:49:50;;;;;;;2.15;0.60;;;23.60;51.50;;;;;;4090980;28;20424;-40
2022/09/20 05:52:53;;;;;;;0.82;0.70;;;23.70;51.30;;;;;;4093072;28;20069;-42
2022/09/20 05:55:34;;;;;;;1.45;0.60;;;23.70;51.50;;;;;;4087134;28;20045;-38
2022/09/20 05:58:20;;;;;;;1.38;0.50;;;23.70;51.00;;;;;;4092541;28;20087;-38
2022/09/20 06:01:02;;;;;;;1.83;0.70;;;23.80;51.30;;;;;;4086789;28;20775;-38
2022/09/20 06:03:54;;;;;;;1.63;0.75;;;23.80;51.10;;;;;;4087412;28;20043;-37
2022/09/20 06:06:53;;;;;;;1.00;0.50;;;23.80;51.00;;;;;;4089122;28;20039;-38
2022/09/20 06:09:28;;;;;;;0.65;0.50;;;23.80;51.40;;;;;;4088106;28;20062;-41
2022/09/20 06:12:02;;;;;;;1.60;0.43;;;23.90;51.00;;;;;;4089094;28;20036;-39
2022/09/20 06:14:32;;;;;;;2.25;0.70;;;23.90;51.20;;;;;;4090820;28;20097;-37
2022/09/20 06:17:18;;;;;;;4.13;0.77;;;24.00;50.90;;;;;;4088985;28;20139;-41
2022/09/20 06:20:06;;;;;;;3.92;0.88;;;24.00;50.80;;;;;;4087608;28;20046;-40
2022/09/20 06:22:51;;;;;;;6.13;0.82;;;24.00;50.80;;;;;;4091835;28;20388;-42
2022/09/20 06:25:30;;;;;;;2.20;0.80;;;24.10;50.80;;;;;;4091032;28;20655;-38
2022/09/20 06:28:26;;;;;;;5.93;1.17;;;24.10;50.70;;;;;;4088105;28;20043;-38
2022/09/20 06:30:51;;;;;;;5.60;1.30;;;24.10;51.30;;;;;;4083542;28;20043;-44
2022/09/20 06:33:19;;;;;;;4.15;1.02;;;24.20;50.80;;;;;;4090454;28;20530;-37
2022/09/20 06:35:48;;;;;;;3.80;1.35;;;24.20;51.00;;;;;;4087611;28;20404;-37
2022/09/20 06:41:30;;;;;;;3.63;0.70;;;24.20;50.90;;;;;;4092381;28;20432;-38
2022/09/20 06:43:53;;;;;;;6.13;0.88;;;24.20;51.00;;;;;;4090341;28;20047;-37
2022/09/20 06:46:16;;;;;;;3.55;0.70;;;24.20;51.10;;;;;;4085886;28;20043;-38
2022/09/20 06:48:39;;;;;;;2.00;0.93;;;24.20;51.00;;;;;;4089866;28;20070;-40
2022/09/20 06:51:02;;;;;;;1.67;0.80;;;24.20;51.60;;;;;;4091382;28;20535;-41
2022/09/20 06:53:34;;;;;;;2.50;0.50;;;24.20;50.90;;;;;;4090793;28;20574;-38
2022/09/20 06:55:58;;;;;;;2.72;0.73;;;24.20;51.00;;;;;;4091615;28;20043;-41
2022/09/20 06:58:21;;;;;;;1.50;0.75;;;24.20;50.90;;;;;;4088879;28;20468;-43
2022/09/20 07:00:44;;;;;;;1.83;0.93;;;24.20;50.90;;;;;;4089558;28;20036;-39
2022/09/20 07:03:07;;;;;;;2.88;0.50;;;24.20;51.00;;;;;;4088865;28;20043;-38
2022/09/20 07:05:30;;;;;;;2.17;0.93;;;24.20;51.20;;;;;;4085493;28;20047;-40
2022/09/20 07:08:00;;;;;;;1.83;0.52;;;24.20;51.10;;;;;;4077144;28;20091;-39
2022/09/20 07:10:23;;;;;;;1.38;0.40;;;24.20;51.30;;;;;;4083483;28;20027;-43
2022/09/20 07:12:46;;;;;;;2.25;0.85;;;24.10;51.20;;;;;;4081835;28;20622;-41
2022/09/20 07:15:09;;;;;;;1.00;0.57;;;24.20;51.10;;;;;;4082000;28;20691;-40
2022/09/20 07:17:32;;;;;;;1.60;0.40;;;24.10;51.30;;;;;;4079467;28;20458;-39
2022/09/20 07:19:58;;;;;;;2.38;1.00;;;24.10;51.20;;;;;;4081663;28;20458;-39
2022/09/20 07:22:21;;;;;;;3.90;0.98;;;24.10;51.30;;;;;;4081802;28;20065;-42
2022/09/20 07:24:45;;;;;;;1.08;0.60;;;24.00;51.30;;;;;;4078794;28;20587;-42
2022/09/20 07:27:10;;;;;;;4.22;1.25;;;24.00;51.40;;;;;;4084214;28;20067;-41
2022/09/20 07:29:34;;;;;;;9.95;1.27;;;24.00;51.40;;;;;;4082301;28;20501;-37
2022/09/20 07:31:57;;;;;;;7.68;1.65;;;24.00;51.40;;;;;;4085086;28;20043;-37
2022/09/20 07:34:20;;;;;;;6.03;1.08;;;23.90;51.50;;;;;;4082660;28;20043;-39
2022/09/20 07:36:43;;;;;;;4.85;1.23;;;23.90;51.60;;;;;;4083073;28;20045;-39
2022/09/20 07:39:05;;;;;;;2.55;0.85;;;23.90;51.70;;;;;;4083137;28;20127;-40
2022/09/20 07:41:30;;;;;;;1.60;0.80;;;23.80;51.70;;;;;;4084623;28;20046;-39
2022/09/20 07:43:53;;;;;;;2.25;1.00;;;23.80;51.80;;;;;;4089578;28;20066;-39
2022/09/20 07:46:16;;;;;;;2.47;1.17;;;23.80;51.70;;;;;;4085198;28;20318;-39
2022/09/20 07:48:39;;;;;;;2.70;1.13;;;23.80;50.10;;;;;;4086578;28;20146;-39
2022/09/20 07:51:07;;;;;;;3.30;1.37;;;23.70;49.70;;;;;;4077521;28;20122;-38
2022/09/20 07:53:31;;;;;;;3.30;1.05;;;23.60;50.50;;;;;;4083564;28;20043;-38
2022/09/20 07:56:03;;;;;;;2.70;0.70;;;23.60;51.30;;;;;;4086227;28;20039;-38
2022/09/20 07:58:29;;;;;;;1.67;1.08;;;23.60;51.80;;;;;;4080345;28;20047;-39
2022/09/20 08:00:54;;;;;;;0.88;0.73;;;23.60;52.30;;;;;;4088908;28;20062;-38
2022/09/20 08:03:17;;;;;;;3.78;0.95;;;23.60;52.30;;;;;;4084477;28;20389;-39
2022/09/20 08:05:40;;;;;;;1.55;0.77;;;23.70;52.50;;;;;;4082774;28;20074;-38
2022/09/20 08:08:03;;;;;;;2.20;0.63;;;23.70;53.30;;;;;;4086914;28;20043;-40
2022/09/20 08:10:26;;;;;;;2.30;0.87;;;23.70;52.70;;;;;;4083152;28;20035;-42
2022/09/20 08:12:49;;;;;;;3.13;0.93;;;23.70;52.60;;;;;;4087293;28;20047;-41
2022/09/20 08:15:12;;;;;;;1.00;0.63;;;23.70;52.70;;;;;;4080718;28;20042;-39
2022/09/20 08:17:35;;;;;;;3.92;0.68;;;23.70;52.80;;;;;;4087736;28;20125;-38
2022/09/20 08:19:57;;;;;;;1.60;0.55;;;23.70;52.80;;;;;;4083508;28;20428;-39
2022/09/20 08:22:22;;;;;;;1.98;0.60;;;23.70;52.80;;;;;;4075403;28;20043;-40
2022/09/20 08:24:45;;;;;;;2.67;0.90;;;23.70;52.70;;;;;;4081305;28;20086;-39
2022/09/20 08:27:08;;;;;;;1.95;0.80;;;23.70;52.80;;;;;;4082873;28;20146;-39
2022/09/20 08:29:32;;;;;;;2.08;0.50;;;23.70;52.90;;;;;;4079047;28;20036;-42
2022/09/20 08:31:57;;;;;;;1.70;0.55;;;23.70;53.00;;;;;;4080864;28;20048;-40
2022/09/20 08:34:19;;;;;;;7.57;0.68;;;23.60;52.90;;;;;;4082460;28;20038;-41
2022/09/20 08:36:50;;;;;;;3.35;0.68;;;23.70;52.70;;;;;;4082481;28;20039;-37
2022/09/20 08:39:15;;;;;;;1.98;0.60;;;23.60;52.60;;;;;;4079456;28;20050;-40
2022/09/20 08:42:04;;;;;;;0.60;0.38;;;23.60;52.60;;;;;;4076911;28;20070;-38
2022/09/20 08:44:34;;;;;;;0.98;0.57;;;23.60;52.70;;;;;;4081988;28;20047;-37
2022/09/20 08:47:29;;;;;;;3.65;0.73;;;23.60;53.10;;;;;;4073834;29;20206;-38
2022/09/20 08:49:54;;;;;;;3.42;0.88;;;23.60;53.00;;;;;;4085649;28;20047;-44
2022/09/20 08:52:22;;;;;;;1.23;0.40;;;23.60;53.00;;;;;;4090857;28;20096;-42
2022/09/20 08:54:45;;;;;;;1.67;0.80;;;23.60;53.10;;;;;;4078451;28;20045;-39
2022/09/20 08:57:15;;;;;;;2.17;0.70;;;23.60;53.10;;;;;;4081242;29;20423;-41
2022/09/20 08:59:39;;;;;;;2.10;0.50;;;23.50;52.90;;;;;;4083704;28;20762;-42
2022/09/20 09:02:02;;;;;;;;;;;23.50;52.90;;;;;;4083244;28;20152;-40
2022/09/20 09:04:34;;;;;;;0.40;0.40;;;23.40;53.00;;;;;;4081569;28;19971;-40
2022/09/20 09:06:57;;;;;;;1.75;0.68;;;23.40;53.10;;;;;;4078408;28;20031;-41
2022/09/20 09:09:26;;;;;;;1.15;0.75;;;23.40;53.20;;;;;;4085184;28;20130;-40
2022/09/20 09:11:50;;;;;;;4.40;0.88;;;23.40;53.20;;;;;;4086980;28;20180;-39
2022/09/20 09:14:53;;;;;;;3.03;0.95;;;23.40;53.40;;;;;;4079644;28;20181;-42
2022/09/20 09:17:19;;;;;;;5.18;1.13;;;23.30;53.50;;;;;;4080095;28;20067;-40
2022/09/20 09:19:51;;;;;;;6.20;0.70;;;23.30;53.50;;;;;;4081325;28;20063;-38
2022/09/20 09:22:42;;;;;;;3.47;0.88;;;23.30;53.60;;;;;;4083594;28;20050;-41
2022/09/20 09:25:22;;;;;;;4.38;0.85;;;23.30;53.50;;;;;;4082472;28;20046;-40
2022/09/20 09:27:55;;;;;;;6.78;1.02;;;23.30;53.60;;;;;;4086229;28;20102;-40
2022/09/20 09:30:31;;;;;;;4.55;1.20;;;23.20;53.70;;;;;;4084215;28;20420;-39
2022/09/20 09:33:17;;;;;;;2.38;0.75;;;23.20;53.70;;;;;;4083813;28;20039;-43
2022/09/20 09:35:41;;;;;;;3.42;1.20;;;23.10;53.60;;;;;;4080343;28;20053;-43
2022/09/20 09:38:04;;;;;;;3.35;1.02;;;23.10;53.70;;;;;;4083305;28;20074;-40
2022/09/20 09:40:28;;;;;;;2.47;0.93;;;23.10;53.80;;;;;;4082873;28;20345;-41
2022/09/20 09:42:52;;;;;;;2.10;0.63;;;23.10;53.90;;;;;;4081787;28;20554;-39
2022/09/20 09:45:26;;;;;;;5.80;1.38;;;23.10;54.00;;;;;;4084148;28;20464;-39
2022/09/20 09:47:49;;;;;;;2.85;0.98;;;23.10;54.30;;;;;;4081963;28;20047;-39
2022/09/20 09:50:23;;;;;;;1.63;0.50;;;23.00;54.00;;;;;;4080596;28;20122;-40
2022/09/20 09:52:58;;;;;;;5.60;0.85;;;23.00;53.90;;;;;;4087579;28;20138;-37
2022/09/20 09:55:22;;;;;;;2.28;0.70;;;23.00;53.90;;;;;;4085301;28;20046;-40
2022/09/20 09:58:11;;;;;;;2.45;0.63;;;23.00;54.00;;;;;;4084098;28;20031;-38
2022/09/20 10:00:41;;;;;;;1.95;0.85;;;22.90;53.90;;;;;;4085370;28;20054;-38
2022/09/20 10:03:49;;;;;;;1.50;0.77;;;22.90;54.00;;;;;;4087403;28;20105;-39
2022/09/20 10:06:22;;;;;;;0.60;0.52;;;22.90;54.00;;;;;;4087321;28;20051;-40
2022/09/20 10:09:34;;;;;;;2.35;0.98;;;22.80;53.90;;;;;;4081341;28;20575;-42
2022/09/20 10:12:19;;;;;;;2.42;0.68;;;22.80;54.20;;;;;;4046638;29;20226;-43
2022/09/20 10:15:21;;;;;;;1.20;0.50;;;22.80;54.30;;;;;;4082610;28;20043;-38
2022/09/20 10:18:07;;;;;;;5.95;0.88;;;22.80;54.30;;;;;;4067831;28;20279;-39
2022/09/20 10:21:07;;;;;;;2.38;0.47;;;22.70;54.70;;;;;;4082840;28;20075;-39
2022/09/20 10:24:14;;;;;;;1.77;0.70;;;22.70;55.00;;;;;;4084764;28;20040;-39
2022/09/20 10:26:36;;;;;;;2.45;0.73;;;22.70;54.80;;;;;;4086444;28;20110;-45
2022/09/20 10:29:31;;;;;;;8.63;0.88;;;22.70;54.80;;;;;;4085375;28;20062;-38
2022/09/20 10:32:04;;;;;;;3.00;0.80;;;22.70;54.70;;;;;;4076959;28;20081;-39
2022/09/20 10:34:49;;;;;;;1.88;0.70;;;22.70;54.80;;;;;;4080887;28;20495;-45
2022/09/20 10:37:50;;;;;;;1.45;0.80;;;22.70;55.00;;;;;;4083230;28;20040;-42
2022/09/20 10:40:15;;;;;;;5.38;0.80;;;22.70;54.90;;;;;;4073441;28;20121;-40
2022/09/20 10:46:05;;;;;;;1.15;0.57;;;22.70;55.10;;;;;;4081310;28;20055;-39
2022/09/20 10:48:47;;;;;;;3.58;0.95;;;22.60;55.00;;;;;;4085556;28;20150;-39
2022/09/20 10:51:38;;;;;;;3.80;1.15;;;22.60;53.90;;;;;;4084258;28;20106;-42
2022/09/20 10:54:26;;;;;;;2.45;0.90;;;22.60;53.20;;;;;;4082153;28;20071;-40
2022/09/20 10:56:55;;;;;;;2.13;1.38;;;22.60;53.00;;;;;;4078361;28;20101;-39
2022/09/20 10:59:28;;;;;;;4.90;1.10;;;22.50;53.60;;;;;;4081837;28;20077;-43
2022/09/20 11:02:13;;;;;;;5.13;1.45;;;22.40;54.60;;;;;;4083636;28;20532;-39
2022/09/20 11:04:54;;;;;;;1.70;0.82;;;22.40;55.10;;;;;;4083765;28;20358;-40
2022/09/20 11:07:32;;;;;;;2.63;1.13;;;22.40;55.30;;;;;;4082539;28;20039;-42
2022/09/20 11:10:06;;;;;;;3.15;0.90;;;22.40;55.40;;;;;;4082058;28;20051;-41
2022/09/20 11:12:43;;;;;;;3.22;0.80;;;22.40;55.70;;;;;;4081446;28;20043;-41
2022/09/20 11:15:24;;;;;;;5.95;0.95;;;22.40;55.90;;;;;;4082711;28;20040;-42
2022/09/20 11:17:59;;;;;;;4.72;1.05;;;22.40;56.00;;;;;;4085090;28;20616;-38
2022/09/20 11:20:42;;;;;;;6.72;1.20;;;22.40;56.00;;;;;;4082124;28;20047;-45
2022/09/20 11:23:22;;;;;;;3.00;0.85;;;22.40;56.10;;;;;;4080480;28;20039;-39
2022/09/20 11:26:00;;;;;;;3.90;0.82;;;22.40;56.10;;;;;;4080270;28;20044;-40
2022/09/20 11:28:29;;;;;;;2.25;1.10;;;22.40;56.30;;;;;;4081560;28;20098;-40
2022/09/20 11:30:59;;;;;;;3.95;0.93;;;22.40;56.60;;;;;;4080814;28;20132;-42
2022/09/20 11:33:57;;;;;;;2.83;1.08;;;22.40;56.50;;;;;;4081966;28;20417;-40
2022/09/20 11:36:25;;;;;;;2.50;0.85;;;22.40;56.40;;;;;;4083352;28;20050;-40
2022/09/20 11:39:28;;;;;;;2.80;1.10;;;22.30;56.30;;;;;;4081328;28;20564;-40
2022/09/20 11:41:54;;;;;;;6.78;1.40;;;22.30;56.40;;;;;;4079823;28;20123;-46
2022/09/20 11:44:19;;;;;;;3.13;1.00;;;22.30;56.40;;;;;;4083742;28;20070;-40
2022/09/20 11:47:03;;;;;;;3.90;0.80;;;22.30;56.30;;;;;;4083721;28;20118;-41
2022/09/20 11:49:32;;;;;;;1.23;0.83;;;22.30;56.50;;;;;;4081828;28;20775;-39
2022/09/20 11:52:17;;;;;;;5.78;1.13;;;22.30;56.50;;;;;;4078071;28;20385;-42
2022/09/20 11:55:04;;;;;;;2.92;0.90;;;22.30;56.50;;;;;;4083846;28;20495;-43
2022/09/20 11:57:28;;;;;;;2.92;1.05;;;22.30;56.40;;;;;;4080984;28;20087;-47
2022/09/20 12:00:04;;;;;;;8.07;0.95;;;22.20;56.40;;;;;;4081471;28;20424;-41
2022/09/20 12:02:29;;;;;;;4.22;0.88;;;22.20;56.40;;;;;;4086330;28;20031;-47
2022/09/20 12:04:52;;;;;;;3.75;0.90;;;22.20;56.30;;;;;;4084975;28;20051;-44
2022/09/20 12:07:34;;;;;;;1.30;0.70;;;22.20;56.50;;;;;;4083129;28;20463;-41
2022/09/20 12:10:00;;;;;;;5.63;1.02;;;22.20;56.50;;;;;;4088879;28;20554;-41
2022/09/20 12:12:23;;;;;;;6.93;1.33;;;22.20;56.60;;;;;;4088288;28;20097;-42
2022/09/20 12:14:58;;;;;;;6.78;1.50;;;22.20;57.40;;;;;;4083367;28;20070;-41
2022/09/20 12:17:56;;;;;;;3.13;1.20;;;22.20;56.90;;;;;;4085099;28;20055;-42
2022/09/20 12:20:34;;;;;;;1.88;0.95;;;22.20;56.70;;;;;;4069054;29;20040;-41
2022/09/20 12:23:34;;;;;;;1.75;0.85;;;22.20;56.60;;;;;;4087364;28;20480;-41
2022/09/20 12:26:06;;;;;;;2.67;0.90;;;22.10;56.40;;;;;;4088409;29;20078;-42
2022/09/20 12:28:41;;;;;;;2.40;1.10;;;22.10;56.40;;;;;;4087075;28;20114;-42
2022/09/20 12:31:19;;;;;;;5.50;1.33;;;22.10;56.40;;;;;;4084018;28;20579;-38
2022/09/20 12:34:09;;;;;;;10.68;1.70;;;22.10;56.40;;;;;;4091437;28;20408;-44
2022/09/20 12:36:38;;;;;;;14.30;2.47;;;22.10;57.50;;;;;;4095687;28;20039;-43
2022/09/20 12:39:05;;;;;;;13.07;2.22;;;22.10;57.10;;;;;;4083251;28;20118;-41
2022/09/20 12:41:44;;;;;;;9.05;1.70;;;22.10;57.00;;;;;;4088161;28;20064;-42
2022/09/20 12:44:29;;;;;;;15.48;2.05;;;22.10;57.00;;;;;;4091238;28;20448;-43
2022/09/20 12:47:07;;;;;;;4.43;1.50;;;22.10;56.80;;;;;;4089357;28;20043;-47
2022/09/20 12:52:52;;;;;;;6.90;1.35;;;22.00;56.90;;;;;;4089639;28;20122;-42
2022/09/20 12:55:39;;;;;;;3.63;1.33;;;22.00;56.90;;;;;;4091735;28;20055;-42
2022/09/20 12:58:15;;;;;;;6.50;1.38;;;22.00;56.90;;;;;;4087565;28;20134;-43
2022/09/20 13:00:58;;;;;;;8.55;1.52;;;22.00;57.00;;;;;;4092144;28;20047;-41
2022/09/20 13:03:47;;;;;;;4.80;1.05;;;22.00;57.00;;;;;;4091431;28;20138;-42
2022/09/20 13:06:15;;;;;;;3.03;0.82;;;21.90;56.90;;;;;;4090351;28;20106;-40
2022/09/20 13:08:50;;;;;;;5.75;1.40;;;21.90;57.00;;;;;;4084614;28;20211;-40
2022/09/20 13:11:18;;;;;;;4.35;1.00;;;21.90;57.10;;;;;;4089249;28;20400;-41
2022/09/20 13:13:58;;;;;;;5.03;0.90;;;21.90;57.20;;;;;;4090076;28;20035;-40
2022/09/20 13:16:32;;;;;;;5.00;1.48;;;21.90;57.20;;;;;;4091093;28;20062;-39
2022/09/20 13:19:13;;;;;;;1.05;0.70;;;21.90;57.30;;;;;;4088065;28;20375;-39
2022/09/20 13:21:44;;;;;;;5.97;1.25;;;21.90;57.30;;;;;;4087942;28;20055;-40
2022/09/20 13:24:14;;;;;;;4.65;0.98;;;21.90;57.40;;;;;;4088342;28;20467;-38
2022/09/20 13:26:43;;;;;;;3.63;0.80;;;21.90;57.20;;;;;;4092681;28;20066;-39
2022/09/20 13:29:09;;;;;;;5.35;1.23;;;21.90;57.20;;;;;;4088520;28;20622;-39
2022/09/20 13:31:34;;;;;;;3.33;0.93;;;21.90;57.30;;;;;;4091489;28;20499;-42
2022/09/20 13:34:14;;;;;;;2.70;1.02;;;21.80;57.20;;;;;;4087087;28;20047;-38
2022/09/20 13:36:37;;;;;;;7.57;1.02;;;21.80;57.20;;;;;;4091234;28;20035;-38
2022/09/20 13:39:01;;;;;;;3.47;1.10;;;21.80;57.20;;;;;;4090893;28;20050;-38
2022/09/20 13:41:31;;;;;;;1.27;0.50;;;21.80;57.10;;;;;;4090824;28;20102;-38
2022/09/20 13:43:54;;;;;;;4.65;1.50;;;21.80;57.10;;;;;;4087410;28;20055;-38